EFHKLGSA

Guest
Details From EFHK - Helsinki Vantaa
To LGSA - Khania Souda
Flight Number -
Tags Generated
Created
Modified
Stats Distance 1,490 nm / 2,760 km
Max Altitude 0 ft / 0 m
Waypoints 7
Social Downloads 3
Likes 0
Share VATSIM

Download

Looking for another format? Having issues loading an existing format? Contact us
Advertisement - Login to hide

Notes

Generated

Route

EFHK SMILA TADUN D ESOPO SUD89 LGSA

ID Type Via Altitude Latitude Longitude Leg Dist Tot Dist Heading (true) Name
O EFHK APT - 0 ft / 0 m 60.33028˚ 24.96450˚ - 0 nm - -
SMILA FIX - 0 ft / 0 m 56.17000˚ 24.70944˚ 249 nm 249 nm 182° / 182° -
TADUN FIX - 0 ft / 0 m 51.90137˚ 24.68811˚ 256 nm 506 nm 180° / 180° -
D NDB - 0 ft / 0 m 44.08472˚ 24.38611˚ 469 nm 975 nm 182° / 181° DEVESELU NDB
ESOPO FIX - 0 ft / 0 m 39.33944˚ 24.50222˚ 285 nm 1260 nm 179° / 179° -
SUD89 FIX - 0 ft / 0 m 35.53772˚ 24.13118˚ 229 nm 1489 nm 185° / 184° -
O LGSA APT - 0 ft / 0 m 35.53708˚ 24.13399˚ 0 nm 1490 nm 106° / 106° -

Altitude Profile

Advertisement - Login to hide

Weather


0- 5 10 15 20 25 30 35+ Temperature / ° C

Clouds and Precipitation
Forecast for 2018-05-27 00:00 UTC. Updated 2 hours ago

Ground ~20,000 ft ~40,000 ft Winds

EFHK

Details ICAO EFHK (HEL)
Name Helsinki Vantaa
Region Finland
Timezone Europe/Helsinki (UTC+3.0)
Stats Elevation 179 ft / 55 m (AMSL)
Location 60.320569° 24.952668°
Runways 3
Magnetic Variation 9.024° E

METAR

EFHK 270120Z 33006KT CAVOK 14/08 Q1025 NOSIG

Decode

TAF

TAF TAF EFHK 262322Z 2700/2724 30007KT CAVOK BECMG 2704/2706 02010KT

Decode

Departure Runways

ID Width Length Bearing (true) Bearing (mag) Surface Threshold Offset Overrun Length
04L 197 ft / 60 m 9,817 ft / 2,992 m 47.43° 38.41° Asphalt 800 ft / 244 m 0 ft / 0 m
04R 197 ft / 60 m 10,472 ft / 3,192 m 47.46° 38.44° Asphalt 262 ft / 80 m 0 ft / 0 m
15 197 ft / 60 m 9,497 ft / 2,895 m 153.08° 144.06° Asphalt 0 ft / 0 m 198 ft / 60 m
22L 197 ft / 60 m 10,472 ft / 3,192 m 227.50° 218.48° Asphalt 0 ft / 0 m 197 ft / 60 m
22R 197 ft / 60 m 9,817 ft / 2,992 m 227.46° 218.44° Asphalt 912 ft / 278 m 0 ft / 0 m
33 197 ft / 60 m 9,497 ft / 2,895 m 333.10° 324.08° Asphalt 0 ft / 0 m 197 ft / 60 m

LGSA

Details ICAO LGSA (CHQ)
Name Khania Souda
Region Greece
Timezone Europe/Athens (UTC+3.0)
Stats Elevation 490 ft / 149 m (AMSL)
Location 35.531592° 24.151184°
Runways 1
Magnetic Variation 4.325° E

METAR

LGSA 270120Z /////KT 9999 FEW018 SCT040 21/18 Q1013

Decode

TAF

TAF LGSA 262300Z 2700/2724 33015KT 9999 FEW018 SCT030 PROB40 TEMPO 2700/2720 5000 RA SCT015 BKN030 PROB30 TEMPO 2709/2715 4000 TSRA FEW018CB BKN025 TEMPO 2703/2709 35015G25KT

Decode

Destination Runways

ID Width Length Bearing (true) Bearing (mag) Surface Threshold Offset Overrun Length
11 148 ft / 45 m 10,967 ft / 3,343 m 111.40° 107.08° Asphalt 0 ft / 0 m 735 ft / 224 m
29 148 ft / 45 m 10,967 ft / 3,343 m 291.42° 287.10° Asphalt 0 ft / 0 m 900 ft / 274 m

Popular Alternatives